Time;durP1;ratioP1;P1;durP2;ratioP2;P2;SDS_P1;SDS_P2;PMS_P1;PMS_P2;Temp;Humidity;BMP_temperature;BMP_pressure;BME280_temperature;BME280_humidity;BME280_pressure;Samples;Min_cycle;Max_cycle;Signal;HPM_P1;HPM_P2
2021/11/26 00:02:02;;;;;;;123.22;48.78;;;;;;;2.63;100.00;100206.53;5057940;28;20086;-83
2021/11/26 00:04:27;;;;;;;121.28;51.42;;;;;;;2.62;100.00;100202.22;5050251;28;20044;-83
2021/11/26 00:06:57;;;;;;;120.97;46.00;;;;;;;2.64;100.00;100195.78;5047921;28;20064;-83
2021/11/26 00:09:28;;;;;;;112.90;45.45;;;;;;;2.60;100.00;100191.72;5078558;28;20059;-84
2021/11/26 00:11:54;;;;;;;110.28;44.42;;;;;;;2.63;100.00;100188.00;5042823;28;20033;-83
2021/11/26 00:14:25;;;;;;;105.90;41.80;;;;;;;2.63;100.00;100182.69;5048493;28;20515;-84
2021/11/26 00:16:57;;;;;;;116.03;50.88;;;;;;;2.66;100.00;100185.09;5051626;28;20052;-83
2021/11/26 00:19:27;;;;;;;105.35;46.00;;;;;;;2.66;100.00;100185.91;5019159;28;20045;-83
2021/11/26 00:21:52;;;;;;;;;;;;;;;2.63;100.00;100174.75;5068814;28;20090;-83
2021/11/26 00:24:26;;;;;;;99.85;38.67;;;;;;;2.58;100.00;100166.34;5069014;28;20799;-84
2021/11/26 00:26:53;;;;;;;110.15;43.75;;;;;;;2.58;100.00;100151.28;5068127;28;20055;-84
2021/11/26 00:29:20;;;;;;;83.85;39.33;;;;;;;2.63;100.00;100151.75;5032504;28;20044;-84
2021/11/26 00:31:45;;;;;;;101.05;42.60;;;;;;;2.66;100.00;100143.53;5031693;28;20045;-83
2021/11/26 00:34:11;;;;;;;94.78;39.28;;;;;;;2.65;100.00;100141.03;5067096;28;20045;-84
2021/11/26 00:36:39;;;;;;;92.25;41.80;;;;;;;2.70;100.00;100130.84;5044716;28;20032;-84
2021/11/26 00:39:13;;;;;;;101.68;49.90;;;;;;;2.74;100.00;100129.66;5049554;28;20040;-83
2021/11/26 00:41:39;;;;;;;99.93;39.80;;;;;;;2.67;100.00;100124.00;5066871;28;20045;-84
2021/11/26 00:44:06;;;;;;;90.57;40.72;;;;;;;2.69;100.00;100118.59;5062960;28;20105;-84
2021/11/26 00:46:36;;;;;;;98.80;46.45;;;;;;;2.68;100.00;100112.47;5049702;28;20508;-84
2021/11/26 00:49:03;;;;;;;92.53;42.58;;;;;;;2.68;100.00;100107.16;5045960;28;20119;-84
2021/11/26 00:51:30;;;;;;;88.90;39.33;;;;;;;2.65;100.00;100104.78;5026801;28;20041;-84
2021/11/26 00:53:57;;;;;;;88.72;36.53;;;;;;;2.65;100.00;100106.59;5048466;28;20041;-83
2021/11/26 00:56:24;;;;;;;89.07;39.45;;;;;;;2.63;100.00;100084.69;5049715;28;20512;-83
2021/11/26 00:58:50;;;;;;;94.47;45.45;;;;;;;2.67;100.00;100086.91;5063757;28;20442;-83
2021/11/26 01:01:18;;;;;;;83.90;36.65;;;;;;;2.65;100.00;100090.69;5033011;28;20037;-84
2021/11/26 01:03:45;;;;;;;94.43;39.97;;;;;;;2.63;100.00;100082.03;5069296;28;20048;-84
2021/11/26 01:06:12;;;;;;;102.78;45.30;;;;;;;2.72;100.00;100084.72;5044835;28;20126;-84
2021/11/26 01:08:39;;;;;;;102.93;48.38;;;;;;;2.76;100.00;100076.50;5048374;28;20761;-84
2021/11/26 01:11:05;;;;;;;99.40;45.00;;;;;;;2.68;100.00;100071.88;5050671;28;20033;-84
2021/11/26 01:13:30;;;;;;;94.78;44.55;;;;;;;2.73;100.00;100064.34;5070136;28;20120;-84
2021/11/26 01:15:56;;;;;;;82.95;39.90;;;;;;;2.66;100.00;100056.09;5039603;28;20045;-84
2021/11/26 01:18:21;;;;;;;93.25;42.60;;;;;;;2.68;100.00;100050.69;5048731;28;20056;-84
2021/11/26 01:20:48;;;;;;;88.22;39.05;;;;;;;2.63;100.00;100059.03;5036956;28;20382;-84
2021/11/26 01:23:14;;;;;;;96.55;46.80;;;;;;;2.72;100.00;100060.03;5052030;28;20042;-84
2021/11/26 01:25:40;;;;;;;89.75;40.65;;;;;;;2.69;100.00;100060.31;5036786;28;20489;-84
2021/11/26 01:28:07;;;;;;;87.65;38.60;;;;;;;2.69;100.00;100049.72;5052836;28;20485;-84
2021/11/26 01:30:46;;;;;;;102.45;51.85;;;;;;;2.77;100.00;100044.59;5070173;28;20047;-84
2021/11/26 01:33:13;;;;;;;89.68;42.53;;;;;;;2.74;100.00;100044.88;5054013;28;20048;-84
2021/11/26 01:35:39;;;;;;;87.18;44.15;;;;;;;2.74;100.00;100044.88;5049878;28;20443;-83
2021/11/26 01:38:05;;;;;;;87.55;41.10;;;;;;;2.74;100.00;100031.63;5052220;28;20044;-84
2021/11/26 01:40:32;;;;;;;84.25;42.80;;;;;;;2.77;100.00;100034.00;5070879;28;20056;-84
2021/11/26 01:42:58;;;;;;;72.82;36.88;;;;;;;2.68;100.00;100032.16;5071023;28;20064;-84
2021/11/26 01:45:25;;;;;;;92.70;45.00;;;;;;;2.76;100.00;100019.03;5048958;28;20040;-84
2021/11/26 01:47:51;;;;;;;82.00;40.35;;;;;;;2.76;100.00;100024.34;5032508;28;20072;-84
2021/11/26 01:50:19;;;;;;;89.68;46.13;;;;;;;2.78;100.00;100008.34;5050877;28;20043;-83
2021/11/26 01:52:44;;;;;;;70.97;36.30;;;;;;;2.75;100.00;100011.25;5052293;28;20072;-84
2021/11/26 01:55:11;;;;;;;79.25;39.53;;;;;;;2.73;100.00;100000.78;5032129;28;20751;-84
2021/11/26 01:57:37;;;;;;;75.70;39.28;;;;;;;2.76;100.00;100005.81;5017370;28;20041;-83
2021/11/26 02:00:15;;;;;;;72.28;36.92;;;;;;;2.75;100.00;100001.47;5069394;28;20037;-84
2021/11/26 02:02:40;;;;;;;62.30;29.13;;;;;;;2.76;100.00;99994.38;5069889;28;20044;-84
2021/11/26 02:05:06;;;;;;;68.72;36.30;;;;;;;2.74;100.00;99986.56;5069525;28;20094;-83
2021/11/26 02:07:32;;;;;;;61.63;33.65;;;;;;;2.76;100.00;99984.59;5052571;28;20047;-83
2021/11/26 02:09:57;;;;;;;66.40;33.65;;;;;;;2.75;100.00;99977.63;5052510;28;20047;-84
2021/11/26 02:12:23;;;;;;;59.95;31.55;;;;;;;2.74;100.00;99975.13;5050480;28;20048;-84
2021/11/26 02:14:48;;;;;;;69.95;36.60;;;;;;;2.74;100.00;99969.84;5064224;28;20075;-83
2021/11/26 02:17:14;;;;;;;59.78;31.52;;;;;;;2.74;100.00;99957.44;5052112;28;20043;-84
2021/11/26 02:19:40;;;;;;;62.42;34.70;;;;;;;2.73;100.00;99950.44;5052609;28;20037;-84
2021/11/26 02:22:05;;;;;;;64.55;34.90;;;;;;;2.78;100.00;99947.38;5059483;28;20051;-84
2021/11/26 02:24:31;;;;;;;60.22;34.63;;;;;;;2.74;100.00;99944.19;5068612;28;20051;-84
2021/11/26 02:26:56;;;;;;;69.22;39.08;;;;;;;2.77;100.00;99933.31;5068793;28;20123;-84
2021/11/26 02:29:22;;;;;;;64.13;32.97;;;;;;;2.72;100.00;99925.75;5051038;28;20105;-84
2021/11/26 02:31:48;;;;;;;69.15;36.10;;;;;;;2.74;100.00;99920.34;5052366;28;20090;-84
2021/11/26 02:34:15;;;;;;;63.97;39.40;;;;;;;2.74;100.00;99922.97;5069057;28;20049;-83
2021/11/26 02:36:40;;;;;;;67.13;33.75;;;;;;;2.69;100.00;99919.91;5070245;28;20489;-83
2021/11/26 02:39:08;;;;;;;71.20;41.75;;;;;;;2.74;100.00;99916.84;5034629;28;20048;-84
2021/11/26 02:41:39;;;;;;;68.68;36.47;;;;;;;2.74;100.00;99908.91;5040106;28;20106;-83
2021/11/26 02:44:05;;;;;;;66.50;33.72;;;;;;;2.70;100.00;99906.53;5042582;28;20033;-83
2021/11/26 02:46:31;;;;;;;74.30;38.78;;;;;;;2.74;100.00;99893.00;5067434;28;20044;-83
2021/11/26 02:48:56;;;;;;;68.18;37.40;;;;;;;2.73;100.00;99889.50;5051480;28;20129;-83
2021/11/26 02:51:22;;;;;;;70.60;35.75;;;;;;;2.70;100.00;99887.97;5052014;28;20377;-84
2021/11/26 02:53:47;;;;;;;64.68;34.20;;;;;;;2.71;100.00;99891.47;5069552;28;20120;-84
2021/11/26 02:56:12;;;;;;;66.57;37.97;;;;;;;2.74;100.00;99887.72;5061184;28;20549;-83
2021/11/26 02:58:38;;;;;;;57.83;34.90;;;;;;;2.72;100.00;99883.38;5062005;28;20045;-83
2021/11/26 03:01:04;;;;;;;59.40;33.03;;;;;;;2.73;100.00;99873.59;5053855;28;20095;-83
2021/11/26 03:03:29;;;;;;;66.63;32.85;;;;;;;2.72;100.00;99878.06;5059572;28;20048;-83
2021/11/26 03:06:00;;;;;;;59.85;35.42;;;;;;;2.71;100.00;99875.56;5050382;28;20045;-83
2021/11/26 03:08:26;;;;;;;57.88;31.08;;;;;;;2.67;100.00;99869.69;5032448;28;20041;-84
2021/11/26 03:10:52;;;;;;;57.95;33.95;;;;;;;2.70;100.00;99868.56;5031882;28;20052;-84
2021/11/26 03:13:17;;;;;;;55.90;36.42;;;;;;;2.74;100.00;99864.69;5049773;28;20041;-84
2021/11/26 03:15:44;;;;;;;58.00;34.85;;;;;;;2.73;100.00;99852.41;5054532;28;20039;-84
2021/11/26 03:18:13;;;;;;;55.35;31.25;;;;;;;2.69;100.00;99848.38;5072036;28;20378;-83
2021/11/26 03:20:39;;;;;;;60.72;33.80;;;;;;;2.74;100.00;99847.97;5039490;28;20476;-84
2021/11/26 03:23:04;;;;;;;55.03;30.30;;;;;;;2.74;100.00;99843.50;5072478;28;20068;-84
2021/11/26 03:25:29;;;;;;;53.88;31.90;;;;;;;2.74;100.00;99837.38;5073204;28;20036;-84
2021/11/26 03:27:55;;;;;;;57.72;33.90;;;;;;;2.74;100.00;99827.59;5055437;28;20056;-84
2021/11/26 03:30:22;;;;;;;59.10;35.50;;;;;;;2.77;100.00;99829.16;5054466;28;20047;-84
2021/11/26 03:32:48;;;;;;;53.65;30.35;;;;;;;2.70;100.00;99826.19;5073353;28;20040;-84
2021/11/26 03:35:15;;;;;;;57.00;33.35;;;;;;;2.72;100.00;99819.78;5054807;28;20378;-84
2021/11/26 03:37:40;;;;;;;55.63;34.65;;;;;;;2.76;100.00;99814.19;5054071;28;20090;-84
2021/11/26 03:40:08;;;;;;;52.70;28.33;;;;;;;2.70;100.00;99807.63;5054464;28;20045;-84
2021/11/26 03:42:33;;;;;;;49.17;27.13;;;;;;;2.69;100.00;99804.16;5051253;28;20052;-83
2021/11/26 03:44:59;;;;;;;49.97;31.27;;;;;;;2.71;100.00;99796.09;5050637;28;20064;-84
2021/11/26 03:47:25;;;;;;;45.92;28.15;;;;;;;2.73;100.00;99794.13;5051618;28;20051;-84
2021/11/26 03:49:51;;;;;;;41.85;26.55;;;;;;;2.69;100.00;99779.47;5062658;28;20033;-84
2021/11/26 03:52:16;;;;;;;50.70;33.22;;;;;;;2.76;100.00;99783.25;5054364;28;20043;-84
2021/11/26 03:54:43;;;;;;;47.50;29.95;;;;;;;2.73;100.00;99783.53;5038340;28;20063;-84
2021/11/26 03:57:08;;;;;;;44.85;27.92;;;;;;;2.75;100.00;99780.75;5052953;28;20056;-83
2021/11/26 03:59:34;;;;;;;48.55;32.83;;;;;;;2.76;100.00;99780.59;5054694;28;20486;-84
2021/11/26 04:01:59;;;;;;;48.58;30.70;;;;;;;2.76;100.00;99762.03;5072648;28;20508;-84
2021/11/26 04:04:25;;;;;;;41.85;26.17;;;;;;;2.72;100.00;99765.97;5037686;28;20051;-83
2021/11/26 04:06:50;;;;;;;51.05;31.42;;;;;;;2.71;100.00;99759.00;5051580;28;20052;-83
2021/11/26 04:09:16;;;;;;;51.70;32.25;;;;;;;2.74;100.00;99747.28;5034076;28;20094;-83
2021/11/26 04:11:42;;;;;;;45.72;27.83;;;;;;;2.72;100.00;99750.91;5044169;28;20459;-83
2021/11/26 04:14:07;;;;;;;47.60;31.15;;;;;;;2.72;100.00;99736.81;5053695;28;20468;-83
2021/11/26 04:16:34;;;;;;;46.55;29.10;;;;;;;2.69;100.00;99729.97;5072731;28;20055;-84
2021/11/26 04:19:00;;;;;;;41.45;26.55;;;;;;;2.74;100.00;99724.28;5053995;28;20523;-83
2021/11/26 04:21:25;;;;;;;42.33;25.48;;;;;;;2.68;100.00;99720.38;5067366;28;20072;-84
2021/11/26 04:23:51;;;;;;;44.65;31.23;;;;;;;2.73;100.00;99719.94;5069773;28;20064;-84
2021/11/26 04:26:16;;;;;;;42.08;25.58;;;;;;;2.70;100.00;99709.63;5052604;28;20162;-83
2021/11/26 04:28:41;;;;;;;45.78;26.70;;;;;;;2.70;100.00;99704.31;5054306;28;20044;-84
2021/11/26 04:31:07;;;;;;;38.20;26.23;;;;;;;2.72;100.00;99691.78;5049126;28;20485;-84
2021/11/26 04:33:34;;;;;;;45.83;28.83;;;;;;;2.73;100.00;99688.16;5065273;28;20048;-84
2021/11/26 04:36:00;;;;;;;45.15;28.70;;;;;;;2.72;100.00;99689.13;5050377;28;20086;-84
2021/11/26 04:38:25;;;;;;;43.67;27.83;;;;;;;2.73;100.00;99682.84;5052477;28;20041;-85
2021/11/26 04:40:51;;;;;;;44.38;26.98;;;;;;;2.74;100.00;99681.06;5070642;28;20090;-84
2021/11/26 04:43:16;;;;;;;38.00;26.25;;;;;;;2.76;100.00;99676.44;5051427;28;20044;-84
2021/11/26 04:45:41;;;;;;;42.95;28.17;;;;;;;2.76;100.00;99674.63;5019449;28;20541;-84
2021/11/26 04:48:07;;;;;;;44.78;26.08;;;;;;;2.76;100.00;99674.63;5031179;28;20094;-84
2021/11/26 04:50:33;;;;;;;37.72;24.90;;;;;;;2.74;100.00;99667.81;5072145;28;20397;-84
2021/11/26 04:52:58;;;;;;;44.42;30.67;;;;;;;2.76;100.00;99658.72;5037111;28;20040;-83
2021/11/26 04:55:26;;;;;;;44.17;30.30;;;;;;;2.74;100.00;99663.34;5071262;28;20044;-84
2021/11/26 04:57:51;;;;;;;40.17;26.15;;;;;;;2.72;100.00;99644.94;5053666;28;20064;-84
2021/11/26 05:00:19;;;;;;;37.92;27.45;;;;;;;2.75;100.00;99654.41;5066479;28;20065;-83
2021/11/26 05:02:46;;;;;;;40.80;24.65;;;;;;;2.73;100.00;99651.06;5062827;28;20037;-84
2021/11/26 05:05:12;;;;;;;40.88;27.33;;;;;;;2.78;100.00;99642.69;5046192;28;20377;-85
2021/11/26 05:07:38;;;;;;;37.28;28.50;;;;;;;2.76;100.00;99634.88;5062254;28;20425;-85
2021/11/26 05:10:05;;;;;;;41.78;24.52;;;;;;;2.77;100.00;99641.88;5050375;28;20042;-85
2021/11/26 05:12:35;;;;;;;37.17;25.50;;;;;;;2.77;100.00;99641.88;5068639;28;20532;-83
2021/11/26 05:15:01;;;;;;;40.75;27.38;;;;;;;2.78;100.00;99637.41;5069726;28;20041;-84
2021/11/26 05:17:26;;;;;;;39.65;27.30;;;;;;;2.82;100.00;99634.34;5051764;28;20043;-84
2021/11/26 05:19:52;;;;;;;39.80;26.95;;;;;;;2.84;100.00;99632.34;5050169;28;20082;-84
2021/11/26 05:22:17;;;;;;;39.38;28.88;;;;;;;2.85;100.00;99626.09;5038012;28;20078;-83
2021/11/26 05:24:42;;;;;;;34.08;25.92;;;;;;;2.85;100.00;99625.22;5036322;28;20048;-83
2021/11/26 05:27:08;;;;;;;40.67;28.27;;;;;;;2.86;100.00;99616.31;5052210;28;20045;-86
2021/11/26 05:29:33;;;;;;;40.97;28.13;;;;;;;2.89;100.00;99622.16;5069047;28;20523;-84
2021/11/26 05:31:59;;;;;;;43.58;29.00;;;;;;;2.92;100.00;99611.28;5041417;28;20052;-84
2021/11/26 05:34:24;;;;;;;39.38;29.60;;;;;;;2.92;100.00;99613.94;5041962;28;20055;-84
2021/11/26 05:36:49;;;;;;;37.33;26.60;;;;;;;2.91;100.00;99612.28;5056718;28;20624;-84
2021/11/26 05:39:16;;;;;;;41.45;29.23;;;;;;;2.92;100.00;99619.22;5053661;28;20047;-83
2021/11/26 05:41:41;;;;;;;47.15;32.00;;;;;;;2.94;100.00;99616.44;5032452;28;20508;-84
2021/11/26 05:44:06;;;;;;;42.47;29.10;;;;;;;2.96;100.00;99600.38;5041476;28;20044;-84
2021/11/26 05:46:32;;;;;;;37.10;25.73;;;;;;;2.94;100.00;99604.03;5070542;28;20052;-84
2021/11/26 05:48:57;;;;;;;39.50;26.80;;;;;;;2.98;100.00;99601.91;5070409;28;20044;-84
2021/11/26 05:51:23;;;;;;;36.28;26.40;;;;;;;2.99;100.00;99603.56;5062322;28;20047;-84
2021/11/26 05:53:48;;;;;;;43.90;24.38;;;;;;;2.98;100.00;99596.63;5059571;28;20040;-85
2021/11/26 05:56:14;;;;;;;45.58;32.30;;;;;;;3.04;100.00;99590.72;5032260;28;20053;-83
2021/11/26 05:58:39;;;;;;;43.80;30.35;;;;;;;3.04;100.00;99584.59;5067415;28;20048;-83
2021/11/26 06:01:05;;;;;;;39.80;26.83;;;;;;;3.04;100.00;99576.66;5067172;28;20493;-85
2021/11/26 06:03:30;;;;;;;40.58;26.38;;;;;;;3.05;100.00;99575.66;5030152;28;20028;-84
2021/11/26 06:05:56;;;;;;;43.40;30.58;;;;;;;3.07;100.00;99579.00;5033312;28;20051;-84
2021/11/26 06:08:21;;;;;;;41.80;27.85;;;;;;;3.06;100.00;99569.41;5048600;28;20131;-84
2021/11/26 06:10:46;;;;;;;35.60;25.23;;;;;;;3.03;100.00;99567.03;5061619;28;20041;-83
2021/11/26 06:13:12;;;;;;;36.25;25.63;;;;;;;3.06;100.00;99564.94;5061496;28;20492;-84
2021/11/26 06:15:37;;;;;;;42.15;30.00;;;;;;;3.09;100.00;99563.81;5031432;28;20114;-83
2021/11/26 06:18:03;;;;;;;42.03;25.92;;;;;;;3.08;100.00;99551.50;5066359;28;20036;-84
2021/11/26 06:20:28;;;;;;;39.00;25.77;;;;;;;3.09;100.00;99539.94;5067404;28;20050;-83
2021/11/26 06:22:54;;;;;;;41.28;27.52;;;;;;;3.10;100.00;99521.22;5051482;28;20040;-85
2021/11/26 06:25:21;;;;;;;40.38;23.65;;;;;;;3.12;100.00;99515.78;5067745;28;20040;-85
2021/11/26 06:27:48;;;;;;;37.13;26.65;;;;;;;3.15;100.00;99512.84;5035722;28;20047;-85
2021/11/26 06:30:17;;;;;;;34.88;23.92;;;;;;;3.18;100.00;99507.25;5016881;28;20675;-84
2021/11/26 06:32:44;;;;;;;29.60;17.90;;;;;;;3.19;100.00;99506.25;5068883;28;20109;-86
2021/11/26 06:35:13;;;;;;;25.98;19.38;;;;;;;3.22;100.00;99500.66;5051415;28;20132;-84
2021/11/26 06:37:38;;;;;;;24.55;15.20;;;;;;;3.18;100.00;99504.59;5035830;28;20060;-86
2021/11/26 06:40:05;;;;;;;24.65;17.83;;;;;;;3.21;100.00;99506.13;5069310;28;20033;-85
2021/11/26 06:42:31;;;;;;;24.55;17.15;;;;;;;3.21;100.00;99503.47;5051417;28;20102;-85
2021/11/26 06:45:05;;;;;;;26.70;17.88;;;;;;;3.22;100.00;99499.81;5050844;28;20041;-85
2021/11/26 06:47:32;;;;;;;22.55;18.08;;;;;;;3.22;100.00;99490.03;5064330;28;20041;-85
2021/11/26 06:49:57;;;;;;;26.73;18.48;;;;;;;3.22;100.00;99502.47;5066968;28;20029;-84
2021/11/26 06:52:24;;;;;;;29.23;17.30;;;;;;;3.17;100.00;99498.47;5064385;28;20492;-85
2021/11/26 06:54:53;;;;;;;28.05;19.92;;;;;;;3.19;100.00;99490.34;5048263;28;20040;-85
2021/11/26 06:57:24;;;;;;;26.65;18.42;;;;;;;3.21;100.00;99490.22;5032265;28;20052;-86
2021/11/26 06:59:53;;;;;;;28.30;19.35;;;;;;;3.18;100.00;99480.72;5044207;28;20045;-86
2021/11/26 07:02:25;;;;;;;29.40;21.30;;;;;;;3.18;100.00;99483.38;5042290;28;20044;-86
2021/11/26 07:04:51;;;;;;;25.85;18.30;;;;;;;3.13;100.00;99483.81;5058430;28;20477;-86
2021/11/26 07:07:19;;;;;;;28.77;17.13;;;;;;;3.11;100.00;99477.03;5050369;28;20045;-86
2021/11/26 07:09:45;;;;;;;27.58;17.02;;;;;;;3.10;100.00;99473.50;5040924;28;20037;-85
2021/11/26 07:12:11;;;;;;;25.13;15.07;;;;;;;3.09;100.00;99473.69;5060114;28;20053;-85
2021/11/26 07:14:43;;;;;;;24.48;16.80;;;;;;;3.11;100.00;99466.41;5049548;28;20378;-85
2021/11/26 07:17:19;;;;;;;30.40;18.88;;;;;;;3.11;100.00;99461.13;5048319;28;20037;-86
2021/11/26 07:19:47;;;;;;;25.25;15.68;;;;;;;3.09;100.00;99457.78;5049642;28;20055;-85
2021/11/26 07:22:15;;;;;;;28.58;17.83;;;;;;;3.10;100.00;99454.97;5057441;28;20094;-85
2021/11/26 07:24:46;;;;;;;29.70;16.80;;;;;;;3.10;100.00;99454.97;5035628;28;20417;-85
2021/11/26 07:27:11;;;;;;;26.38;19.33;;;;;;;3.10;100.00;99451.47;5059954;28;20041;-85
2021/11/26 07:29:37;;;;;;;28.90;21.42;;;;;;;3.11;100.00;99447.88;5067217;28;20043;-86
2021/11/26 07:32:04;;;;;;;28.10;20.30;;;;;;;3.13;100.00;99440.56;5064835;28;20028;-85
2021/11/26 07:34:35;;;;;;;28.90;22.23;;;;;;;3.11;100.00;99440.75;5065787;28;20132;-85
2021/11/26 07:37:14;;;;;;;27.17;19.83;;;;;;;3.12;100.00;99438.91;5070182;28;21107;-87
2021/11/26 07:39:40;;;;;;;24.83;18.60;;;;;;;3.11;100.00;99429.31;5046646;28;20052;-86
2021/11/26 07:42:10;;;;;;;26.88;21.23;;;;;;;3.11;100.00;99429.31;5048386;28;20070;-86
2021/11/26 07:44:38;;;;;;;26.13;20.35;;;;;;;3.10;100.00;99427.63;5044494;28;20056;-85
2021/11/26 07:47:07;;;;;;;24.88;16.90;;;;;;;3.05;100.00;99412.19;5048338;28;20098;-86
2021/11/26 07:49:33;;;;;;;24.65;17.80;;;;;;;3.08;100.00;99414.53;5051302;28;20036;-85
2021/11/26 07:52:01;;;;;;;22.67;14.63;;;;;;;3.08;100.00;99417.19;5049030;28;20401;-85
2021/11/26 07:54:29;;;;;;;24.92;20.10;;;;;;;3.15;100.00;99402.34;5047257;28;20493;-86
2021/11/26 07:56:58;;;;;;;23.83;17.65;;;;;;;3.14;100.00;99408.63;5060874;28;20037;-85
2021/11/26 07:59:25;;;;;;;26.98;19.25;;;;;;;3.16;100.00;99397.84;5030073;28;20047;-86
2021/11/26 08:01:51;;;;;;;28.85;17.92;;;;;;;3.18;100.00;99380.00;5066448;28;20072;-86
2021/11/26 08:04:24;;;;;;;29.30;19.85;;;;;;;3.21;100.00;99386.81;5045606;28;20067;-85
2021/11/26 08:06:50;;;;;;;33.67;22.15;;;;;;;3.22;100.00;99381.34;5060759;28;20047;-86
2021/11/26 08:09:18;;;;;;;31.63;20.38;;;;;;;3.22;100.00;99383.16;5049747;28;20040;-86
2021/11/26 08:11:44;;;;;;;29.23;22.30;;;;;;;3.26;100.00;99377.44;5065071;28;20614;-85
2021/11/26 08:14:12;;;;;;;33.50;20.90;;;;;;;3.26;100.00;99366.81;5062727;28;20043;-85
2021/11/26 08:16:39;;;;;;;33.65;22.02;;;;;;;3.27;100.00;99365.81;5049431;28;20036;-87
2021/11/26 08:19:10;;;;;;;33.65;24.02;;;;;;;3.31;100.00;99369.84;5063104;28;20542;-85
2021/11/26 08:21:38;;;;;;;33.72;22.02;;;;;;;3.32;100.00;99362.72;5047746;28;20056;-85
2021/11/26 08:24:05;;;;;;;37.22;20.92;;;;;;;3.33;100.00;99354.59;5050909;28;20534;-86
2021/11/26 08:26:33;;;;;;;37.47;20.88;;;;;;;3.32;100.00;99355.59;5054086;28;20055;-86
2021/11/26 08:29:02;;;;;;;35.22;23.30;;;;;;;3.35;100.00;99363.25;5057002;28;20036;-85
2021/11/26 08:31:28;;;;;;;36.88;23.15;;;;;;;3.38;100.00;99352.34;5064944;28;20037;-85
2021/11/26 08:33:53;;;;;;;40.22;24.60;;;;;;;3.42;100.00;99346.72;5066019;28;20094;-87
2021/11/26 08:36:18;;;;;;;43.90;26.88;;;;;;;3.44;100.00;99328.84;5028591;28;20443;-84
2021/11/26 08:38:45;;;;;;;44.08;24.75;;;;;;;3.42;100.00;99344.91;5048360;28;20079;-85
2021/11/26 08:41:10;;;;;;;44.28;24.73;;;;;;;3.46;100.00;99340.13;5032972;28;20493;-85
2021/11/26 08:43:36;;;;;;;47.20;26.75;;;;;;;3.48;100.00;99332.84;5045693;28;20048;-86
2021/11/26 08:46:01;;;;;;;41.90;24.30;;;;;;;3.47;100.00;99325.88;5059404;28;20051;-84
2021/11/26 08:48:28;;;;;;;47.53;26.02;;;;;;;3.50;100.00;99322.91;5050399;28;20135;-85
2021/11/26 08:50:56;;;;;;;43.33;26.23;;;;;;;3.48;100.00;99322.22;5063335;28;20061;-86
2021/11/26 08:53:22;;;;;;;41.22;23.17;;;;;;;3.47;100.00;99316.09;5046696;28;20036;-86
2021/11/26 08:55:53;;;;;;;46.20;25.42;;;;;;;3.49;100.00;99315.97;5033710;28;20044;-87
2021/11/26 08:58:22;;;;;;;45.78;28.10;;;;;;;3.50;100.00;99305.19;5032076;28;20048;-85
2021/11/26 09:00:49;;;;;;;38.90;22.42;;;;;;;3.53;100.00;99309.34;5065274;28;20095;-85
2021/11/26 09:03:16;;;;;;;40.65;24.75;;;;;;;3.54;100.00;99292.44;5065152;28;20036;-86
2021/11/26 09:05:52;;;;;;;39.60;23.33;;;;;;;3.55;100.00;99291.47;5048434;28;20063;-85
2021/11/26 09:08:18;;;;;;;41.05;21.15;;;;;;;3.52;100.00;99282.00;5059132;28;20442;-84
2021/11/26 09:10:46;;;;;;;38.20;23.20;;;;;;;3.54;100.00;99279.16;5032582;28;20045;-85
2021/11/26 09:13:13;;;;;;;39.88;21.92;;;;;;;3.52;100.00;99271.38;5045293;28;20037;-85
2021/11/26 09:15:43;;;;;;;40.90;23.50;;;;;;;3.55;100.00;99283.50;5048046;28;20883;-85
2021/11/26 09:18:11;;;;;;;43.63;20.63;;;;;;;3.56;100.00;99279.84;5047773;28;20059;-85
2021/11/26 09:20:38;;;;;;;37.22;20.92;;;;;;;3.55;100.00;99276.38;5060841;28;20559;-85
2021/11/26 09:23:06;;;;;;;37.97;21.70;;;;;;;3.56;100.00;99275.38;5044820;28;20059;-85
2021/11/26 09:25:36;;;;;;;35.08;22.48;;;;;;;3.58;100.00;99269.94;5048787;28;20151;-85
2021/11/26 09:28:02;;;;;;;39.45;23.05;;;;;;;3.60;100.00;99268.78;5070883;28;20127;-85
2021/11/26 09:30:30;;;;;;;36.55;18.85;;;;;;;3.60;100.00;99273.25;5048279;28;20118;-85
2021/11/26 09:32:56;;;;;;;39.40;23.00;;;;;;;3.61;100.00;99261.66;5033269;28;20037;-85
2021/11/26 09:35:22;;;;;;;38.28;19.75;;;;;;;3.60;100.00;99254.69;5054886;28;20042;-85
2021/11/26 09:37:48;;;;;;;43.30;21.15;;;;;;;3.61;100.00;99245.75;5070499;28;20040;-85
2021/11/26 09:40:15;;;;;;;38.53;19.85;;;;;;;3.60;100.00;99247.56;5052252;28;20461;-85
2021/11/26 09:42:44;;;;;;;36.13;19.70;;;;;;;3.60;100.00;99241.44;5036236;28;20049;-85
2021/11/26 09:45:19;;;;;;;30.45;16.52;;;;;;;3.57;100.00;99239.09;5035468;28;20043;-84
2021/11/26 09:47:44;;;;;;;30.40;18.23;;;;;;;3.61;100.00;99235.13;5050425;28;20047;-85
2021/11/26 09:50:10;;;;;;;32.50;18.75;;;;;;;3.61;100.00;99222.69;5035549;28;20192;-85
2021/11/26 09:52:38;;;;;;;34.25;17.98;;;;;;;3.61;100.00;99228.00;5069551;28;20511;-85
2021/11/26 09:55:05;;;;;;;30.27;16.98;;;;;;;3.69;100.00;99221.91;5031836;28;20037;-84
2021/11/26 09:57:30;;;;;;;34.83;18.50;;;;;;;3.77;100.00;99224.59;5049877;28;20047;-85
2021/11/26 09:59:55;;;;;;;35.85;19.23;;;;;;;3.75;100.00;99215.97;5031696;28;20147;-84
2021/11/26 10:02:23;;;;;;;33.92;18.42;;;;;;;3.82;100.00;99202.88;5051592;28;20047;-85
2021/11/26 10:05:08;;;;;;;28.88;17.02;;;;;;;3.81;100.00;99203.88;5036331;28;20151;-85
2021/11/26 10:07:49;;;;;;;33.63;16.27;;;;;;;3.83;100.00;99197.44;5051677;28;20051;-85
2021/11/26 10:10:21;;;;;;;27.17;15.32;;;;;;;3.87;100.00;99191.81;5035025;28;20835;-84
2021/11/26 10:12:59;;;;;;;27.55;15.32;;;;;;;3.90;100.00;99183.53;5064590;28;20538;-84
2021/11/26 10:15:50;;;;;;;26.40;14.15;;;;;;;3.93;100.00;99177.88;5042013;28;20045;-85
2021/11/26 10:18:25;;;;;;;32.17;15.68;;;;;;;3.98;100.00;99173.75;5033726;28;20437;-84
2021/11/26 10:21:03;;;;;;;25.15;15.45;;;;;;;4.07;100.00;99171.97;5052363;28;20087;-84
2021/11/26 10:23:34;;;;;;;27.63;14.27;;;;;;;4.00;100.00;99160.31;5068643;28;20090;-84
2021/11/26 10:26:12;;;;;;;24.27;13.93;;;;;;;4.00;100.00;99153.22;5051823;28;20040;-85
2021/11/26 10:28:39;;;;;;;29.77;14.25;;;;;;;4.04;100.00;99143.09;5034566;28;20067;-85
2021/11/26 10:31:05;;;;;;;25.40;12.57;;;;;;;4.02;100.00;99140.56;5042758;28;20127;-84
2021/11/26 10:33:34;;;;;;;24.65;13.48;;;;;;;4.04;100.00;99127.97;5050727;28;20112;-84
2021/11/26 10:36:02;;;;;;;22.48;12.80;;;;;;;4.00;100.00;99131.13;5070169;28;20124;-84
2021/11/26 10:38:30;;;;;;;24.92;13.63;;;;;;;4.02;100.00;99115.88;5066857;28;20040;-85
2021/11/26 10:40:58;;;;;;;28.42;13.07;;;;;;;4.05;100.00;99111.06;5060851;28;20516;-85
2021/11/26 10:44:07;;;;;;;28.03;12.60;;;;;;;4.02;100.00;99086.66;5067338;28;20481;-84
2021/11/26 10:49:20;;;;;;;21.20;11.30;;;;;;;4.00;100.00;99072.72;5067632;28;20060;-84
2021/11/26 10:57:37;;;;;;;24.25;11.77;;;;;;;4.10;100.00;99061.97;5069451;28;20097;-84
2021/11/26 11:00:19;;;;;;;21.90;11.18;;;;;;;4.10;100.00;99046.88;5023973;28;20044;-85
2021/11/26 11:02:46;;;;;;;22.25;10.73;;;;;;;4.14;100.00;99037.56;5034584;28;20032;-84
2021/11/26 11:05:31;;;;;;;19.83;10.82;;;;;;;4.19;100.00;99037.06;5051154;28;20048;-84
2021/11/26 11:07:59;;;;;;;20.83;10.05;;;;;;;4.20;100.00;99025.44;5051542;28;20481;-85
2021/11/26 11:10:31;;;;;;;18.40;10.95;;;;;;;4.27;100.00;99015.84;5034583;28;20040;-84
2021/11/26 11:13:11;;;;;;;18.85;9.27;;;;;;;4.25;100.00;99007.19;5069479;28;20043;-84
2021/11/26 11:15:38;;;;;;;19.77;9.82;;;;;;;4.26;100.00;98992.94;5032021;28;20037;-84
2021/11/26 11:18:04;;;;;;;15.70;8.55;;;;;;;4.22;100.00;98991.59;5049061;28;20037;-84
2021/11/26 11:20:30;;;;;;;20.52;9.75;;;;;;;4.25;100.00;98989.44;5049176;28;20438;-83
2021/11/26 11:22:56;;;;;;;18.17;8.85;;;;;;;4.22;100.00;98975.66;5046566;28;20049;-84
2021/11/26 11:25:28;;;;;;;18.90;9.40;;;;;;;4.23;100.00;98978.19;5068513;28;20394;-84
2021/11/26 11:28:04;;;;;;;16.13;8.70;;;;;;;4.18;100.00;98964.56;5052300;28;20135;-84